Kinmount, Canada
Current Conditions -  °F | °C
As of 4:00 AM on Thursday 18 Dec 2014 (Local Time) from CYQA Reporting Station
Overcast Overcast  
Wind Chill: 12°   Ceiling: 1100
Heat Index: 23°   Visibility: 9mi
Dew Point: 19°   Wind: 10mph
Humidity: 86%   Direction: 330°NNW
Pressure: 29.98"   Gusts: NA
Location:  44.78°N, 78.65°W
Report Text: CYQA 180900Z AUTO 33009KT 9SM OVC011 M05/M07 A2998 RMK SLP165
Loading
Personal Weather Stations






























Interactive Weather Map New forecast layout! Learn more

10-Day Weather Forecast

Advertisements
Track Severe Weather on mobile